Latest Weather Observations for Ballina

IDN60801

Issued at 4:33 am EDT Tuesday 19 October 2021 (issued every 10 minutes, with the page automatically refreshed every 10 minutes)

About weather observations | Map of weather stations | Latest weather observations for NSW | Other Formats
Station Details ID: 058198 Name: BALLINA AIRPORT AWS Lat: -28.84 Lon: 153.56 Height: 1.3 m
Data from the previous 72 hours. | See also: Recent months at Ballina
Date/Time
EDT
Temp
°C
App
Temp
°C
Dew
Point
°C
Rel
Hum
%
Delta-T
°C
Wind Press
QNH
hPa
Press
MSL
hPa
Rain since
9am
mm
Dir  Spd
km/h
Gust
km/h
Spd
kts
Gust
kts
19/04:30am 14.2 15.3 13.6 96 0.3 CALM 0 0 0 0 1015.5 1015.5 30.4
19/04:00am 14.5 15.7 13.9 96 0.3 CALM 0 0 0 0 1015.4 1015.4 30.4
19/03:30am 14.6 14.1 13.8 95 0.4 W 9 11 5 6 1015.3 1015.3 30.4
19/03:00am 14.9 16.2 14.1 95 0.5 CALM 0 7 0 4 1015.4 1015.4 30.4
19/02:30am 15.1 15.3 14.1 94 0.6 NW 6 7 3 4 1015.6 1015.6 30.4
19/02:00am 15.5 15.8 14.5 94 0.6 NW 6 7 3 4 1016.0 1016.0 30.4
19/01:30am 15.5 16.6 14.5 94 0.6 WNW 2 6 1 3 1016.2 1016.2 30.4
19/01:00am 15.7 16.9 14.9 95 0.5 WNW 2 9 1 5 1016.3 1016.3 30.4
19/12:30am 15.5 15.4 15.0 97 0.3 W 9 9 5 5 1016.6 1016.6 30.4
19/12:00am 15.5 15.8 15.0 97 0.3 W 7 9 4 5 1017.0 1017.0 30.4
 
Date/Time
EDT
Temp
°C
App
Temp
°C
Dew
Point
°C
Rel
Hum
%
Delta-T
°C
Wind Press
QNH
hPa
Press
MSL
hPa
Rain since
9am
mm
Dir  Spd
km/h
Gust
km/h
Spd
kts
Gust
kts
18/11:30pm 15.7 16.1 15.2 97 0.3 W 7 11 4 6 1017.0 1017.0 30.4
18/11:00pm 15.7 16.6 15.1 96 0.3 WNW 4 9 2 5 1017.2 1017.2 30.4
18/10:30pm 15.9 17.6 15.3 96 0.3 CALM 0 0 0 0 1017.5 1017.5 30.4
18/10:00pm 15.9 16.4 15.1 95 0.5 W 6 7 3 4 1017.7 1017.7 30.4
18/09:30pm 16.1 17.8 15.1 94 0.6 CALM 0 6 0 3 1017.8 1017.8 30.4
18/09:00pm 16.4 16.4 15.3 93 0.6 NNE 9 15 5 8 1017.7 1017.7 30.4
18/08:30pm 16.2 15.4 15.1 93 0.6 NNE 13 19 7 10 1017.2 1017.2 30.4
18/08:00pm 15.9 14.2 14.8 93 0.6 NNE 17 20 9 11 1016.9 1016.9 30.4
18/07:30pm 16.2 15.3 14.9 92 0.7 N 13 19 7 10 1016.6 1016.6 30.4
18/07:00pm 15.8 15.0 15.0 95 0.5 NE 13 15 7 8 1016.3 1016.3 30.0
18/06:42pm 15.6 15.8 14.8 95 0.5 NE 7 9 4 5 1016.3 1016.3 29.8
18/06:30pm 15.9 15.4 14.9 94 0.6 N 11 13 6 7 1016.5 1016.5 29.4
18/06:17pm 15.9 15.0 14.9 94 0.6 N 13 19 7 10 1016.9 1016.9 28.2
18/06:00pm 15.8 14.8 14.7 93 0.6 WNW 13 17 7 9 1016.7 1016.7 26.8
18/05:51pm 15.7 15.1 14.7 94 0.6 NW 11 13 6 7 1016.9 1016.9 26.2
18/05:36pm 15.5 14.5 14.5 94 0.6 W 13 17 7 9 1017.0 1017.0 25.0
18/05:30pm 15.7 14.7 14.7 94 0.6 W 13 15 7 8 1017.0 1017.0 24.2
18/05:23pm 15.6 15.4 14.6 94 0.6 W 9 13 5 7 1017.2 1017.2 21.6
18/05:21pm 15.6 15.4 14.6 94 0.6 W 9 13 5 7 1017.1 1017.1 21.2
18/05:09pm 15.5 14.4 14.4 93 0.6 W 13 19 7 10 1016.8 1016.8 20.4
18/05:07pm 15.7 14.7 14.6 93 0.6 W 13 19 7 10 1016.8 1016.8 20.2
18/05:00pm 15.8 13.6 14.5 92 0.7 WSW 19 24 10 13 1017.0 1017.0 19.8
18/04:30pm 15.7 14.6 14.2 91 0.9 SSW 13 26 7 14 1017.1 1017.1 9.6
18/04:14pm 16.7 12.6 13.8 83 1.6 W 28 44 15 24 1016.7 1016.7 2.8
18/04:06pm 19.1 17.4 14.8 76 2.5 NW 17 44 9 24 1016.4 1016.4 0.8
18/04:00pm 20.6 21.9 18.5 88 1.3 N 9 13 5 7 1016.0 1016.0 0.4
18/03:55pm 20.6 21.5 18.4 87 1.4 NNE 11 19 6 10 1015.7 1015.7 0.4
18/03:30pm 21.1 20.8 18.3 84 1.7 NE 17 24 9 13 1014.9 1014.9 0.0
18/03:00pm 21.9 20.3 17.5 76 2.7 NE 22 32 12 17 1014.3 1014.3 0.0
18/02:30pm 22.2 19.5 17.6 75 2.8 NE 28 37 15 20 1014.0 1014.0 0.0
18/02:00pm 22.9 19.9 17.8 73 3.2 NE 30 39 16 21 1015.4 1015.4 0.0
18/01:30pm 23.9 21.8 18.1 70 3.6 NE 26 33 14 18 1016.0 1016.0 0.0
18/01:00pm 22.9 20.1 17.4 71 3.4 NE 28 37 15 20 1016.4 1016.4 0.0
18/12:30pm 22.8 20.6 16.8 69 3.7 NE 24 37 13 20 1016.7 1016.7 0.0
18/12:00pm 23.6 21.7 17.6 69 3.7 NE 24 32 13 17 1017.2 1017.2 0.0
18/11:30am 22.6 20.9 16.2 67 3.9 NE 20 28 11 15 1017.6 1017.6 0.0
18/11:00am 23.0 20.7 15.8 64 4.3 NE 22 32 12 17 1017.9 1017.9 0.0
18/10:30am 23.1 21.2 15.7 63 4.5 NE 20 28 11 15 1018.2 1018.2 0.0
18/10:00am 23.1 21.4 16.2 65 4.2 NE 20 28 11 15 1018.3 1018.3 0.0
18/09:30am 22.5 21.2 15.8 66 4.0 NE 17 26 9 14 1018.5 1018.5 0.0
18/09:00am 21.0 20.6 15.3 70 3.4 NNE 11 17 6 9 1018.7 1018.7 0.0
18/08:30am 20.8 21.3 15.1 70 3.4 NNE 6 7 3 4 1018.7 1018.7 0.0
18/08:00am 17.7 19.3 15.0 84 1.6 CALM 0 0 0 0 1018.8 1018.8 0.0
18/07:30am 15.3 16.6 14.2 93 0.6 CALM 0 0 0 0 1018.6 1018.6 0.0
18/07:00am 14.0 15.1 13.4 96 0.3 CALM 0 0 0 0 1018.2 1018.2 0.0
18/06:30am 13.2 13.6 12.4 95 0.4 NW 2 6 1 3 1017.8 1017.8 0.0
18/06:00am 13.2 14.0 12.4 95 0.4 CALM 0 0 0 0 1017.4 1017.4 0.0
18/05:30am 13.0 13.7 12.1 94 0.5 CALM 0 0 0 0 1017.0 1017.0 0.0
18/05:00am 13.5 14.3 12.7 95 0.4 CALM 0 0 0 0 1016.9 1016.9 0.0
18/04:30am 13.1 13.8 12.2 94 0.5 CALM 0 0 0 0 1016.6 1016.6 0.0
18/04:00am 13.4 14.2 12.6 95 0.4 CALM 0 0 0 0 1016.5 1016.5 0.0
18/03:30am 13.1 13.7 11.8 92 0.7 CALM 0 0 0 0 1016.3 1016.3 0.0
18/03:00am 13.2 13.9 12.1 93 0.6 CALM 0 0 0 0 1016.5 1016.5 0.0
18/02:30am 13.3 14.0 12.2 93 0.6 CALM 0 0 0 0 1016.9 1016.9 0.0
18/02:00am 12.9 13.5 12.0 94 0.5 CALM 0 0 0 0 1017.1 1017.1 0.0
18/01:30am 13.3 14.1 12.4 94 0.5 CALM 0 0 0 0 1017.3 1017.3 0.0
18/01:00am 13.6 14.4 12.7 94 0.5 CALM 0 0 0 0 1017.3 1017.3 0.0
18/12:30am 13.6 14.4 12.5 93 0.6 CALM 0 0 0 0 1017.5 1017.5 0.0
18/12:00am 13.5 14.2 12.2 92 0.7 CALM 0 0 0 0 1017.7 1017.7 0.0
 
Date/Time
EDT
Temp
°C
App
Temp
°C
Dew
Point
°C
Rel
Hum
%
Delta-T
°C
Wind Press
QNH
hPa
Press
MSL
hPa
Rain since
9am
mm
Dir  Spd
km/h
Gust
km/h
Spd
kts
Gust
kts
17/11:30pm 14.1 14.8 12.3 89 1.0 CALM 0 0 0 0 1017.4 1017.4 0.0
17/11:00pm 14.7 15.3 13.2 91 0.8 N 2 9 1 5 1017.4 1017.4 0.0
17/10:30pm 14.9 15.8 12.9 88 1.1 CALM 0 0 0 0 1017.3 1017.3 0.0
17/10:00pm 15.7 15.6 13.2 85 1.4 NNW 6 7 3 4 1016.9 1016.9 0.0
17/09:30pm 16.1 15.3 13.0 82 1.7 NNW 9 9 5 5 1016.5 1016.5 0.0
17/09:00pm 16.9 16.1 13.0 78 2.2 NNE 9 11 5 6 1016.1 1016.1 0.0
17/08:30pm 17.2 16.7 13.7 80 2.0 N 9 13 5 7 1015.8 1015.8 0.0
17/08:00pm 17.6 17.4 13.5 77 2.3 N 7 9 4 5 1015.4 1015.4 0.0
17/07:30pm 18.5 17.6 12.5 68 3.3 NNE 9 13 5 7 1014.8 1014.8 0.0
17/07:00pm 18.7 17.2 12.0 65 3.7 NE 11 15 6 8 1014.4 1014.4 0.0
17/06:30pm 19.9 18.0 11.7 59 4.5 NE 13 17 7 9 1014.1 1014.1 0.0
17/06:00pm 20.4 17.1 11.6 57 4.9 ENE 20 26 11 14 1013.5 1013.5 0.0
17/05:30pm 21.0 17.1 12.2 57 4.9 ENE 24 28 13 15 1013.3 1013.3 0.0
17/05:00pm 21.4 18.0 11.4 53 5.5 ENE 20 28 11 15 1013.2 1013.2 0.0
17/04:30pm 21.4 18.0 11.4 53 5.5 ENE 20 30 11 16 1013.1 1013.1 0.0
17/04:00pm 21.3 17.9 11.3 53 5.5 ENE 20 30 11 16 1013.2 1013.2 0.0
17/03:30pm 21.7 18.7 12.0 54 5.4 ENE 19 26 10 14 1013.3 1013.3 0.0
17/03:00pm 21.9 18.4 11.0 50 6.0 E 20 30 11 16 1013.6 1013.6 0.0
17/02:30pm 21.7 18.4 10.8 50 6.0 ENE 19 28 10 15 1013.9 1013.9 0.0
17/02:00pm 21.6 17.7 8.8 44 6.8 ESE 19 28 10 15 1014.0 1014.0 0.0
17/01:30pm 21.8 18.2 9.7 46 6.5 SE 19 28 10 15 1014.3 1014.3 0.0
17/01:00pm 22.0 18.0 8.9 43 7.0 SE 20 26 11 14 1014.6 1014.6 0.0
17/12:30pm 21.9 17.9 8.4 42 7.1 SE 19 26 10 14 1014.8 1014.8 0.0
17/12:00pm 22.1 18.1 8.9 43 7.0 SE 20 24 11 13 1015.1 1015.1 0.0
17/11:30am 22.2 19.0 10.0 46 6.6 SE 17 26 9 14 1015.4 1015.4 0.0
17/11:00am 21.9 19.3 7.7 40 7.4 SW 11 19 6 10 1015.7 1015.7 0.0
17/10:30am 21.4 18.9 8.0 42 7.0 SSW 11 17 6 9 1015.7 1015.7 0.0
17/10:00am 20.8 17.6 6.7 40 7.1 SSW 13 24 7 13 1015.8 1015.8 0.0
17/09:30am 20.4 17.2 8.4 46 6.3 SW 15 20 8 11 1015.8 1015.8 0.0
17/09:00am 20.1 17.5 9.4 50 5.7 WSW 13 19 7 10 1015.8 1015.8 0.0
17/08:30am 18.8 16.6 9.3 54 5.0 WSW 11 15 6 8 1015.6 1015.6 0.0
17/08:00am 17.1 15.7 9.5 61 4.0 W 7 9 4 5 1015.3 1015.3 0.0
17/07:30am 13.9 14.3 11.2 84 1.4 CALM 0 0 0 0 1015.1 1015.1 0.0
17/07:00am 10.9 10.8 9.3 90 0.8 CALM 0 0 0 0 1014.6 1014.6 0.0
17/06:30am 9.3 8.9 8.2 93 0.5 CALM 0 0 0 0 1014.1 1014.1 0.0
17/06:00am 9.0 8.5 7.9 93 0.5 CALM 0 0 0 0 1013.7 1013.7 0.0
17/05:30am 9.2 8.6 7.6 90 0.8 CALM 0 2 0 1 1013.3 1013.3 0.0
17/05:00am 9.8 9.0 8.1 89 0.8 NNW 2 6 1 3 1012.9 1012.9 0.0
17/04:30am 9.5 8.9 7.6 88 0.9 CALM 0 0 0 0 1012.5 1012.5 0.0
17/04:00am 10.2 9.8 8.3 88 0.9 CALM 0 0 0 0 1012.3 1012.3 0.0
17/03:30am 11.1 10.1 9.0 87 1.0 NW 4 7 2 4 1012.2 1012.2 0.0
17/03:00am 10.7 10.3 8.1 84 1.3 CALM 0 0 0 0 1012.1 1012.1 0.0
17/02:30am 11.7 11.5 8.9 83 1.4 CALM 0 6 0 3 1012.0 1012.0 0.0
17/02:00am 12.5 11.2 9.1 80 1.7 NNW 6 7 3 4 1012.0 1012.0 0.0
17/01:30am 12.6 11.0 8.7 77 1.9 WNW 7 9 4 5 1012.1 1012.1 0.0
17/01:00am 13.7 11.7 8.7 72 2.5 W 9 13 5 7 1011.9 1011.9 0.0
17/12:30am 12.3 11.4 7.8 74 2.2 W 2 7 1 4 1012.1 1012.1 0.0
17/12:00am 14.3 13.2 8.3 67 3.0 N 4 7 2 4 1012.1 1012.1 0.0
 
Date/Time
EDT
Temp
°C
App
Temp
°C
Dew
Point
°C
Rel
Hum
%
Delta-T
°C
Wind Press
QNH
hPa
Press
MSL
hPa
Rain since
9am
mm
Dir  Spd
km/h
Gust
km/h
Spd
kts
Gust
kts
16/11:30pm 15.1 12.9 7.9 62 3.6 WSW 9 15 5 8 1011.7 1011.7 0.0
16/11:00pm 16.3 14.0 7.3 55 4.5 WNW 9 15 5 8 1011.5 1011.5 0.0
16/10:30pm 18.1 15.6 6.6 47 5.7 W 9 13 5 7 1011.4 1011.4 0.0
16/10:00pm 19.0 15.0 6.5 44 6.2 W 17 24 9 13 1011.0 1011.0 0.0
16/09:30pm 19.2 16.0 6.7 44 6.3 W 13 20 7 11 1010.8 1010.8 0.0
16/09:00pm 19.1 15.6 7.2 46 6.0 W 15 20 8 11 1010.3 1010.3 0.0
16/08:30pm 18.2 14.5 7.9 51 5.2 W 17 24 9 13 1009.8 1009.8 0.0
16/08:00pm 20.0 16.5 7.1 43 6.6 W 15 20 8 11 1009.1 1009.1 0.0
16/07:30pm 20.4 17.3 7.4 43 6.7 W 13 17 7 9 1008.8 1008.8 0.0
16/07:00pm 21.2 17.4 7.4 41 7.1 W 17 22 9 12 1008.2 1008.2 0.0
16/06:30pm 22.8 18.7 6.1 34 8.5 WSW 17 22 9 12 1007.7 1007.7 0.0
16/06:00pm 23.8 17.5 5.7 31 9.2 WSW 28 37 15 20 1006.9 1006.9 0.0
16/05:30pm 24.6 18.9 6.8 32 9.2 W 26 37 14 20 1006.5 1006.5 0.0
16/05:00pm 25.2 19.6 7.3 32 9.4 W 26 32 14 17 1006.2 1006.2 0.0
16/04:32pm 25.5 19.5 7.1 31 9.7 W 28 46 15 25 1006.0 1006.0 0.0
16/04:30pm 25.2 18.6 5.9 29 9.9 WSW 30 46 16 25 1006.0 1006.0 0.0
16/04:29pm 25.3 19.1 6.0 29 9.9 WSW 28 46 15 25 1005.9 1005.9 0.0
16/04:00pm 25.7 19.4 7.3 31 9.7 W 30 44 16 24 1005.8 1005.8 0.0
16/03:30pm 25.7 19.8 5.8 28 10.2 W 26 44 14 24 1005.9 1005.9 0.0
16/03:00pm 25.6 19.9 6.8 30 9.9 W 26 41 14 22 1005.9 1005.9 0.0
16/02:30pm 25.4 19.1 5.6 28 10.1 W 28 44 15 24 1006.3 1006.3 0.0
16/02:05pm 25.4 18.9 6.6 30 9.8 W 30 48 16 26 1006.4 1006.4 0.0
16/02:00pm 25.1 18.1 6.8 31 9.6 W 33 48 18 26 1006.4 1006.4 0.0
16/01:30pm 25.0 19.1 5.7 29 9.9 W 26 41 14 22 1006.7 1006.7 0.0
16/01:02pm 24.9 18.1 5.2 28 10.0 WNW 30 46 16 25 1007.0 1007.0 0.0
16/01:00pm 24.4 17.5 4.7 28 9.9 WNW 30 44 16 24 1007.0 1007.0 0.0
16/12:30pm 24.1 17.1 5.9 31 9.3 W 32 46 17 25 1007.5 1007.5 0.0
16/12:00pm 23.7 15.8 4.6 29 9.5 W 35 50 19 27 1007.9 1007.9 0.0
16/11:30am 23.2 16.6 4.2 29 9.3 W 28 41 15 22 1008.7 1008.7 0.0
16/11:00am 23.0 17.7 8.3 39 7.8 WSW 26 37 14 20 1009.2 1009.2 0.0
16/10:30am 22.4 17.0 6.2 35 8.2 W 24 35 13 19 1009.5 1009.5 0.0
16/10:00am 21.7 16.6 7.5 40 7.4 W 24 35 13 19 1009.5 1009.5 0.0
16/09:30am 21.0 15.2 6.2 38 7.4 W 26 37 14 20 1009.5 1009.5 0.0
16/09:00am 20.5 15.0 6.1 39 7.2 W 24 35 13 19 1009.6 1009.6 0.2
16/08:30am 19.8 16.2 8.2 47 6.0 WNW 17 22 9 12 1009.4 1009.4 0.2
16/08:00am 18.1 15.6 8.4 53 5.0 NNW 11 17 6 9 1009.3 1009.3 0.2
16/07:30am 16.6 14.3 7.5 55 4.6 NNW 9 11 5 6 1008.8 1008.8 0.2
16/07:00am 13.8 12.7 8.6 71 2.6 NNW 4 6 2 3 1008.7 1008.7 0.2
16/06:30am 13.2 11.4 7.2 67 2.9 ESE 6 9 3 5 1008.2 1008.2 0.2
16/06:00am 14.3 12.1 6.2 58 3.9 N 7 11 4 6 1007.8 1007.8 0.2
16/05:30am 15.6 12.9 5.5 51 4.8 WSW 9 15 5 8 1007.2 1007.2 0.2
16/05:00am 17.0 12.7 5.3 46 5.6 W 17 22 9 12 1006.8 1006.8 0.2

Other formats

Comma delimited format used in spreadsheet applications
http://www.bom.gov.au/fwo/IDN60801/IDN60801.94596.axf

JavaScript Object Notation format (JSON) in row-major order
http://www.bom.gov.au/fwo/IDN60801/IDN60801.94596.json

Data quality

Most of these data are generated automatically and are frequently updated. Quality checks on data are not normally performed. It is possible for incorrect values to appear. Refer to information at About Latest Weather Observations and please check the disclaimer before using these data.